sensor_id;sensor_type;location;lat;lon;timestamp;P1;durP1;ratioP1;P2;durP2;ratioP2
62543;SDS011;48597;49.030;1.822;2023-06-14T00:02:05;4.22;;;3.83;;
62543;SDS011;48597;49.030;1.822;2023-06-14T00:04:33;4.45;;;4.05;;
62543;SDS011;48597;49.030;1.822;2023-06-14T00:06:59;4.78;;;4.00;;
62543;SDS011;48597;49.030;1.822;2023-06-14T00:09:25;4.70;;;4.30;;
62543;SDS011;48597;49.030;1.822;2023-06-14T00:11:50;5.05;;;4.07;;
62543;SDS011;48597;49.030;1.822;2023-06-14T00:14:16;4.05;;;3.65;;
62543;SDS011;48597;49.030;1.822;2023-06-14T00:16:41;4.18;;;3.78;;
62543;SDS011;48597;49.030;1.822;2023-06-14T00:19:07;4.50;;;4.10;;
62543;SDS011;48597;49.030;1.822;2023-06-14T00:21:35;4.20;;;3.80;;
62543;SDS011;48597;49.030;1.822;2023-06-14T00:24:01;4.00;;;3.70;;
62543;SDS011;48597;49.030;1.822;2023-06-14T00:26:27;4.60;;;4.20;;
62543;SDS011;48597;49.030;1.822;2023-06-14T00:28:53;4.40;;;4.00;;
62543;SDS011;48597;49.030;1.822;2023-06-14T00:31:19;4.60;;;3.85;;
62543;SDS011;48597;49.030;1.822;2023-06-14T00:33:44;3.97;;;3.60;;
62543;SDS011;48597;49.030;1.822;2023-06-14T00:36:10;4.15;;;3.72;;
62543;SDS011;48597;49.030;1.822;2023-06-14T00:38:35;7.00;;;4.28;;
62543;SDS011;48597;49.030;1.822;2023-06-14T00:41:01;3.97;;;3.67;;
62543;SDS011;48597;49.030;1.822;2023-06-14T00:43:26;4.30;;;3.90;;
62543;SDS011;48597;49.030;1.822;2023-06-14T00:45:51;4.60;;;4.20;;
62543;SDS011;48597;49.030;1.822;2023-06-14T00:48:17;6.20;;;4.03;;
62543;SDS011;48597;49.030;1.822;2023-06-14T00:50:43;4.38;;;3.80;;
62543;SDS011;48597;49.030;1.822;2023-06-14T00:53:11;3.95;;;3.65;;
62543;SDS011;48597;49.030;1.822;2023-06-14T00:55:40;4.55;;;4.15;;
62543;SDS011;48597;49.030;1.822;2023-06-14T00:58:06;4.10;;;3.70;;
62543;SDS011;48597;49.030;1.822;2023-06-14T01:00:31;4.47;;;4.07;;
62543;SDS011;48597;49.030;1.822;2023-06-14T01:02:56;4.97;;;4.30;;
62543;SDS011;48597;49.030;1.822;2023-06-14T01:05:22;4.20;;;3.80;;
62543;SDS011;48597;49.030;1.822;2023-06-14T01:10:54;4.57;;;3.90;;
62543;SDS011;48597;49.030;1.822;2023-06-14T01:15:57;3.95;;;3.60;;
62543;SDS011;48597;49.030;1.822;2023-06-14T01:18:23;4.20;;;3.60;;
62543;SDS011;48597;49.030;1.822;2023-06-14T01:20:50;4.57;;;3.80;;
62543;SDS011;48597;49.030;1.822;2023-06-14T01:23:18;4.43;;;4.00;;
62543;SDS011;48597;49.030;1.822;2023-06-14T01:25:45;4.20;;;3.80;;
62543;SDS011;48597;49.030;1.822;2023-06-14T01:28:11;4.90;;;4.00;;
62543;SDS011;48597;49.030;1.822;2023-06-14T01:30:40;4.45;;;3.95;;
62543;SDS011;48597;49.030;1.822;2023-06-14T01:33:10;4.90;;;3.67;;
62543;SDS011;48597;49.030;1.822;2023-06-14T01:35:42;4.38;;;3.97;;
62543;SDS011;48597;49.030;1.822;2023-06-14T01:38:08;4.68;;;4.22;;
62543;SDS011;48597;49.030;1.822;2023-06-14T01:44:06;3.90;;;3.60;;
62543;SDS011;48597;49.030;1.822;2023-06-14T01:46:34;5.30;;;3.80;;
62543;SDS011;48597;49.030;1.822;2023-06-14T01:49:01;4.50;;;3.88;;
62543;SDS011;48597;49.030;1.822;2023-06-14T01:51:28;5.57;;;3.85;;
62543;SDS011;48597;49.030;1.822;2023-06-14T01:53:54;4.13;;;3.50;;
62543;SDS011;48597;49.030;1.822;2023-06-14T01:56:20;3.88;;;3.58;;
62543;SDS011;48597;49.030;1.822;2023-06-14T01:58:46;4.55;;;4.15;;
62543;SDS011;48597;49.030;1.822;2023-06-14T02:01:13;4.65;;;4.18;;
62543;SDS011;48597;49.030;1.822;2023-06-14T02:03:41;4.40;;;4.00;;
62543;SDS011;48597;49.030;1.822;2023-06-14T02:06:07;4.55;;;4.03;;
62543;SDS011;48597;49.030;1.822;2023-06-14T02:08:33;4.55;;;3.85;;
62543;SDS011;48597;49.030;1.822;2023-06-14T02:10:58;5.18;;;3.92;;
62543;SDS011;48597;49.030;1.822;2023-06-14T02:13:23;4.38;;;3.80;;
62543;SDS011;48597;49.030;1.822;2023-06-14T02:15:49;4.10;;;3.70;;
62543;SDS011;48597;49.030;1.822;2023-06-14T02:18:19;4.03;;;3.67;;
62543;SDS011;48597;49.030;1.822;2023-06-14T02:20:45;4.20;;;3.72;;
62543;SDS011;48597;49.030;1.822;2023-06-14T02:23:11;3.70;;;3.40;;
62543;SDS011;48597;49.030;1.822;2023-06-14T02:25:37;4.38;;;3.67;;
62543;SDS011;48597;49.030;1.822;2023-06-14T02:28:02;4.57;;;3.47;;
62543;SDS011;48597;49.030;1.822;2023-06-14T02:30:28;4.35;;;3.58;;
62543;SDS011;48597;49.030;1.822;2023-06-14T02:32:53;4.00;;;3.60;;
62543;SDS011;48597;49.030;1.822;2023-06-14T02:35:22;4.00;;;3.60;;
62543;SDS011;48597;49.030;1.822;2023-06-14T02:37:51;4.32;;;3.92;;
62543;SDS011;48597;49.030;1.822;2023-06-14T02:40:17;4.25;;;3.85;;
62543;SDS011;48597;49.030;1.822;2023-06-14T02:42:49;4.40;;;4.00;;
62543;SDS011;48597;49.030;1.822;2023-06-14T02:45:15;6.18;;;3.85;;
62543;SDS011;48597;49.030;1.822;2023-06-14T02:47:40;4.13;;;3.72;;
62543;SDS011;48597;49.030;1.822;2023-06-14T02:50:08;4.22;;;3.80;;
62543;SDS011;48597;49.030;1.822;2023-06-14T02:52:35;4.72;;;3.90;;
62543;SDS011;48597;49.030;1.822;2023-06-14T02:55:00;4.35;;;3.95;;
62543;SDS011;48597;49.030;1.822;2023-06-14T02:57:26;5.13;;;3.70;;
62543;SDS011;48597;49.030;1.822;2023-06-14T02:59:51;3.60;;;3.30;;
62543;SDS011;48597;49.030;1.822;2023-06-14T03:02:17;4.20;;;3.83;;
62543;SDS011;48597;49.030;1.822;2023-06-14T03:04:42;4.32;;;3.60;;
62543;SDS011;48597;49.030;1.822;2023-06-14T03:07:09;4.20;;;3.35;;
62543;SDS011;48597;49.030;1.822;2023-06-14T03:12:04;4.10;;;3.60;;
62543;SDS011;48597;49.030;1.822;2023-06-14T03:14:34;4.65;;;3.72;;
62543;SDS011;48597;49.030;1.822;2023-06-14T03:17:00;3.92;;;3.60;;
62543;SDS011;48597;49.030;1.822;2023-06-14T03:19:26;3.92;;;3.63;;
62543;SDS011;48597;49.030;1.822;2023-06-14T03:21:52;4.20;;;3.80;;
62543;SDS011;48597;49.030;1.822;2023-06-14T03:24:18;4.57;;;3.97;;
62543;SDS011;48597;49.030;1.822;2023-06-14T03:26:44;5.07;;;3.88;;
62543;SDS011;48597;49.030;1.822;2023-06-14T03:29:10;4.28;;;3.88;;
62543;SDS011;48597;49.030;1.822;2023-06-14T03:31:39;4.10;;;3.78;;
62543;SDS011;48597;49.030;1.822;2023-06-14T03:34:20;4.88;;;4.05;;
62543;SDS011;48597;49.030;1.822;2023-06-14T03:36:45;4.15;;;3.75;;
62543;SDS011;48597;49.030;1.822;2023-06-14T03:39:11;5.22;;;3.80;;
62543;SDS011;48597;49.030;1.822;2023-06-14T03:41:38;4.68;;;3.78;;
62543;SDS011;48597;49.030;1.822;2023-06-14T03:44:03;4.38;;;3.90;;
62543;SDS011;48597;49.030;1.822;2023-06-14T03:46:29;4.40;;;4.00;;
62543;SDS011;48597;49.030;1.822;2023-06-14T03:48:54;3.92;;;3.55;;
62543;SDS011;48597;49.030;1.822;2023-06-14T03:51:20;4.20;;;3.80;;
62543;SDS011;48597;49.030;1.822;2023-06-14T03:53:45;4.10;;;3.70;;
62543;SDS011;48597;49.030;1.822;2023-06-14T03:56:11;4.25;;;3.75;;
62543;SDS011;48597;49.030;1.822;2023-06-14T03:58:36;4.28;;;3.88;;
62543;SDS011;48597;49.030;1.822;2023-06-14T04:01:02;4.38;;;3.90;;
62543;SDS011;48597;49.030;1.822;2023-06-14T04:03:27;5.95;;;3.50;;
62543;SDS011;48597;49.030;1.822;2023-06-14T04:05:54;4.25;;;3.50;;
62543;SDS011;48597;49.030;1.822;2023-06-14T04:08:21;3.92;;;3.53;;
62543;SDS011;48597;49.030;1.822;2023-06-14T04:10:47;4.10;;;3.50;;
62543;SDS011;48597;49.030;1.822;2023-06-14T04:13:12;4.45;;;3.90;;
62543;SDS011;48597;49.030;1.822;2023-06-14T04:15:38;4.25;;;3.80;;
62543;SDS011;48597;49.030;1.822;2023-06-14T04:18:07;4.75;;;3.70;;
62543;SDS011;48597;49.030;1.822;2023-06-14T04:20:33;5.53;;;3.80;;
62543;SDS011;48597;49.030;1.822;2023-06-14T04:23:10;4.03;;;3.50;;
62543;SDS011;48597;49.030;1.822;2023-06-14T04:25:37;4.45;;;4.00;;
62543;SDS011;48597;49.030;1.822;2023-06-14T04:28:03;4.15;;;3.70;;
62543;SDS011;48597;49.030;1.822;2023-06-14T04:30:28;5.00;;;3.70;;
62543;SDS011;48597;49.030;1.822;2023-06-14T04:32:56;3.95;;;3.50;;
62543;SDS011;48597;49.030;1.822;2023-06-14T04:35:22;3.67;;;3.38;;
62543;SDS011;48597;49.030;1.822;2023-06-14T04:37:49;5.65;;;3.90;;
62543;SDS011;48597;49.030;1.822;2023-06-14T04:40:14;5.97;;;3.90;;
62543;SDS011;48597;49.030;1.822;2023-06-14T04:42:40;4.00;;;3.60;;
62543;SDS011;48597;49.030;1.822;2023-06-14T04:45:06;4.45;;;3.78;;
62543;SDS011;48597;49.030;1.822;2023-06-14T04:47:32;4.88;;;3.72;;
62543;SDS011;48597;49.030;1.822;2023-06-14T04:49:59;4.38;;;3.60;;
62543;SDS011;48597;49.030;1.822;2023-06-14T04:52:25;4.72;;;3.90;;
62543;SDS011;48597;49.030;1.822;2023-06-14T04:54:51;4.22;;;3.55;;
62543;SDS011;48597;49.030;1.822;2023-06-14T04:57:19;4.63;;;3.88;;
62543;SDS011;48597;49.030;1.822;2023-06-14T04:59:47;5.70;;;4.13;;
62543;SDS011;48597;49.030;1.822;2023-06-14T05:02:13;4.50;;;3.80;;
62543;SDS011;48597;49.030;1.822;2023-06-14T05:04:39;4.25;;;3.67;;
62543;SDS011;48597;49.030;1.822;2023-06-14T05:07:08;5.18;;;3.70;;
62543;SDS011;48597;49.030;1.822;2023-06-14T05:09:34;4.15;;;3.78;;
62543;SDS011;48597;49.030;1.822;2023-06-14T05:12:00;4.03;;;3.60;;
62543;SDS011;48597;49.030;1.822;2023-06-14T05:14:26;4.95;;;3.65;;
62543;SDS011;48597;49.030;1.822;2023-06-14T05:16:51;5.03;;;3.50;;
62543;SDS011;48597;49.030;1.822;2023-06-14T05:19:17;4.35;;;3.88;;
62543;SDS011;48597;49.030;1.822;2023-06-14T05:21:43;4.28;;;3.60;;
62543;SDS011;48597;49.030;1.822;2023-06-14T05:24:09;4.85;;;4.28;;
62543;SDS011;48597;49.030;1.822;2023-06-14T05:26:34;5.90;;;4.03;;
62543;SDS011;48597;49.030;1.822;2023-06-14T05:29:00;5.88;;;3.95;;
62543;SDS011;48597;49.030;1.822;2023-06-14T05:31:26;5.72;;;3.80;;
62543;SDS011;48597;49.030;1.822;2023-06-14T05:33:53;4.32;;;3.78;;
62543;SDS011;48597;49.030;1.822;2023-06-14T05:36:19;4.60;;;4.10;;
62543;SDS011;48597;49.030;1.822;2023-06-14T05:38:46;4.13;;;3.55;;
62543;SDS011;48597;49.030;1.822;2023-06-14T05:41:11;4.30;;;3.90;;
62543;SDS011;48597;49.030;1.822;2023-06-14T05:43:37;4.82;;;4.30;;
62543;SDS011;48597;49.030;1.822;2023-06-14T05:46:02;4.75;;;4.00;;
62543;SDS011;48597;49.030;1.822;2023-06-14T05:48:28;5.18;;;3.90;;
62543;SDS011;48597;49.030;1.822;2023-06-14T05:50:54;4.88;;;3.75;;
62543;SDS011;48597;49.030;1.822;2023-06-14T05:53:19;4.55;;;3.75;;
62543;SDS011;48597;49.030;1.822;2023-06-14T05:55:44;5.20;;;3.97;;
62543;SDS011;48597;49.030;1.822;2023-06-14T05:58:10;4.57;;;3.80;;
62543;SDS011;48597;49.030;1.822;2023-06-14T06:00:35;5.38;;;4.00;;
62543;SDS011;48597;49.030;1.822;2023-06-14T06:03:01;4.53;;;4.13;;
62543;SDS011;48597;49.030;1.822;2023-06-14T06:05:27;4.28;;;3.88;;
62543;SDS011;48597;49.030;1.822;2023-06-14T06:07:52;5.22;;;4.20;;
62543;SDS011;48597;49.030;1.822;2023-06-14T06:10:17;4.30;;;3.50;;
62543;SDS011;48597;49.030;1.822;2023-06-14T06:12:43;5.90;;;3.90;;
62543;SDS011;48597;49.030;1.822;2023-06-14T06:15:08;5.32;;;4.13;;
62543;SDS011;48597;49.030;1.822;2023-06-14T06:17:37;5.63;;;3.60;;
62543;SDS011;48597;49.030;1.822;2023-06-14T06:20:04;5.20;;;4.10;;
62543;SDS011;48597;49.030;1.822;2023-06-14T06:22:31;5.20;;;3.83;;
62543;SDS011;48597;49.030;1.822;2023-06-14T06:24:56;6.13;;;3.80;;
62543;SDS011;48597;49.030;1.822;2023-06-14T06:27:22;4.75;;;3.72;;
62543;SDS011;48597;49.030;1.822;2023-06-14T06:29:47;5.05;;;3.53;;
62543;SDS011;48597;49.030;1.822;2023-06-14T06:32:13;4.13;;;3.72;;
62543;SDS011;48597;49.030;1.822;2023-06-14T06:34:40;4.35;;;3.70;;
62543;SDS011;48597;49.030;1.822;2023-06-14T06:37:05;4.18;;;3.78;;
62543;SDS011;48597;49.030;1.822;2023-06-14T06:39:31;4.53;;;3.65;;
62543;SDS011;48597;49.030;1.822;2023-06-14T06:41:56;3.67;;;3.38;;
62543;SDS011;48597;49.030;1.822;2023-06-14T06:44:22;4.03;;;3.55;;
62543;SDS011;48597;49.030;1.822;2023-06-14T06:46:47;4.05;;;3.53;;
62543;SDS011;48597;49.030;1.822;2023-06-14T06:49:12;4.13;;;3.60;;
62543;SDS011;48597;49.030;1.822;2023-06-14T06:51:40;4.32;;;3.90;;
62543;SDS011;48597;49.030;1.822;2023-06-14T06:54:10;5.50;;;3.78;;
62543;SDS011;48597;49.030;1.822;2023-06-14T06:56:36;4.13;;;3.72;;
62543;SDS011;48597;49.030;1.822;2023-06-14T06:59:01;4.05;;;3.65;;
62543;SDS011;48597;49.030;1.822;2023-06-14T07:01:26;4.22;;;3.83;;
62543;SDS011;48597;49.030;1.822;2023-06-14T07:03:54;4.60;;;3.63;;
62543;SDS011;48597;49.030;1.822;2023-06-14T07:06:20;5.03;;;4.00;;
62543;SDS011;48597;49.030;1.822;2023-06-14T07:08:45;4.72;;;3.53;;
62543;SDS011;48597;49.030;1.822;2023-06-14T07:11:13;6.00;;;3.72;;
62543;SDS011;48597;49.030;1.822;2023-06-14T07:13:39;4.40;;;3.75;;
62543;SDS011;48597;49.030;1.822;2023-06-14T07:16:04;4.55;;;3.72;;
62543;SDS011;48597;49.030;1.822;2023-06-14T07:18:30;4.18;;;3.78;;
62543;SDS011;48597;49.030;1.822;2023-06-14T07:20:56;6.10;;;4.10;;
62543;SDS011;48597;49.030;1.822;2023-06-14T07:23:22;5.13;;;4.30;;
62543;SDS011;48597;49.030;1.822;2023-06-14T07:25:48;4.40;;;3.70;;
62543;SDS011;48597;49.030;1.822;2023-06-14T07:28:13;4.45;;;3.72;;
62543;SDS011;48597;49.030;1.822;2023-06-14T07:30:39;4.40;;;4.00;;
62543;SDS011;48597;49.030;1.822;2023-06-14T07:33:04;3.97;;;3.67;;
62543;SDS011;48597;49.030;1.822;2023-06-14T07:35:30;4.10;;;3.70;;
62543;SDS011;48597;49.030;1.822;2023-06-14T07:37:56;4.00;;;3.60;;
62543;SDS011;48597;49.030;1.822;2023-06-14T07:40:21;5.22;;;3.80;;
62543;SDS011;48597;49.030;1.822;2023-06-14T07:42:47;3.72;;;3.25;;
62543;SDS011;48597;49.030;1.822;2023-06-14T07:45:13;4.93;;;3.72;;
62543;SDS011;48597;49.030;1.822;2023-06-14T07:47:39;3.72;;;3.42;;
62543;SDS011;48597;49.030;1.822;2023-06-14T07:50:05;4.07;;;3.67;;
62543;SDS011;48597;49.030;1.822;2023-06-14T07:52:30;4.20;;;3.20;;
62543;SDS011;48597;49.030;1.822;2023-06-14T07:54:56;3.92;;;3.53;;
62543;SDS011;48597;49.030;1.822;2023-06-14T07:57:22;4.80;;;3.80;;
62543;SDS011;48597;49.030;1.822;2023-06-14T07:59:47;3.85;;;3.45;;
62543;SDS011;48597;49.030;1.822;2023-06-14T08:02:13;3.70;;;3.40;;
62543;SDS011;48597;49.030;1.822;2023-06-14T08:04:38;3.63;;;3.33;;
62543;SDS011;48597;49.030;1.822;2023-06-14T08:07:03;3.80;;;3.40;;
62543;SDS011;48597;49.030;1.822;2023-06-14T08:09:29;3.85;;;3.53;;
62543;SDS011;48597;49.030;1.822;2023-06-14T08:11:55;4.03;;;3.70;;
62543;SDS011;48597;49.030;1.822;2023-06-14T08:14:21;5.47;;;3.60;;
62543;SDS011;48597;49.030;1.822;2023-06-14T08:16:47;5.18;;;3.47;;
62543;SDS011;48597;49.030;1.822;2023-06-14T08:19:12;4.05;;;3.20;;
62543;SDS011;48597;49.030;1.822;2023-06-14T08:21:38;6.00;;;3.50;;
62543;SDS011;48597;49.030;1.822;2023-06-14T08:24:03;4.55;;;3.58;;
62543;SDS011;48597;49.030;1.822;2023-06-14T08:26:29;3.55;;;3.20;;
62543;SDS011;48597;49.030;1.822;2023-06-14T08:28:55;4.53;;;3.50;;
62543;SDS011;48597;49.030;1.822;2023-06-14T08:31:21;3.40;;;3.10;;
62543;SDS011;48597;49.030;1.822;2023-06-14T08:33:47;3.65;;;3.33;;
62543;SDS011;48597;49.030;1.822;2023-06-14T08:36:12;3.70;;;3.40;;
62543;SDS011;48597;49.030;1.822;2023-06-14T08:38:38;3.75;;;3.40;;
62543;SDS011;48597;49.030;1.822;2023-06-14T08:41:04;4.18;;;3.47;;
62543;SDS011;48597;49.030;1.822;2023-06-14T08:43:33;4.43;;;3.30;;
62543;SDS011;48597;49.030;1.822;2023-06-14T08:46:00;3.88;;;3.10;;
62543;SDS011;48597;49.030;1.822;2023-06-14T08:48:27;3.95;;;3.47;;
62543;SDS011;48597;49.030;1.822;2023-06-14T08:50:54;3.67;;;3.30;;
62543;SDS011;48597;49.030;1.822;2023-06-14T08:53:26;4.80;;;3.63;;
62543;SDS011;48597;49.030;1.822;2023-06-14T08:55:54;3.35;;;3.05;;
62543;SDS011;48597;49.030;1.822;2023-06-14T08:58:20;3.58;;;3.28;;
62543;SDS011;48597;49.030;1.822;2023-06-14T09:00:49;4.40;;;3.65;;
62543;SDS011;48597;49.030;1.822;2023-06-14T09:03:17;3.90;;;3.50;;
62543;SDS011;48597;49.030;1.822;2023-06-14T09:05:45;3.55;;;3.22;;
62543;SDS011;48597;49.030;1.822;2023-06-14T09:08:11;4.45;;;3.60;;
62543;SDS011;48597;49.030;1.822;2023-06-14T09:10:36;4.50;;;3.33;;
62543;SDS011;48597;49.030;1.822;2023-06-14T09:13:02;3.78;;;3.47;;
62543;SDS011;48597;49.030;1.822;2023-06-14T09:15:29;4.57;;;3.72;;
62543;SDS011;48597;49.030;1.822;2023-06-14T09:17:55;6.95;;;3.78;;
62543;SDS011;48597;49.030;1.822;2023-06-14T09:20:20;3.35;;;3.05;;
62543;SDS011;48597;49.030;1.822;2023-06-14T09:22:48;3.67;;;3.38;;
62543;SDS011;48597;49.030;1.822;2023-06-14T09:25:14;4.50;;;3.58;;
62543;SDS011;48597;49.030;1.822;2023-06-14T09:27:40;3.90;;;3.50;;
62543;SDS011;48597;49.030;1.822;2023-06-14T09:30:08;3.40;;;3.10;;
62543;SDS011;48597;49.030;1.822;2023-06-14T09:32:38;3.80;;;3.40;;
62543;SDS011;48597;49.030;1.822;2023-06-14T09:35:06;5.72;;;3.40;;
62543;SDS011;48597;49.030;1.822;2023-06-14T09:37:33;3.65;;;3.35;;
62543;SDS011;48597;49.030;1.822;2023-06-14T09:39:59;4.55;;;3.33;;
62543;SDS011;48597;49.030;1.822;2023-06-14T09:42:25;3.58;;;3.08;;
62543;SDS011;48597;49.030;1.822;2023-06-14T09:44:51;3.30;;;3.00;;
62543;SDS011;48597;49.030;1.822;2023-06-14T09:47:19;3.92;;;3.53;;
62543;SDS011;48597;49.030;1.822;2023-06-14T09:49:45;3.30;;;3.00;;
62543;SDS011;48597;49.030;1.822;2023-06-14T09:52:12;3.78;;;3.28;;
62543;SDS011;48597;49.030;1.822;2023-06-14T09:54:41;3.67;;;3.28;;
62543;SDS011;48597;49.030;1.822;2023-06-14T09:57:14;3.35;;;3.05;;
62543;SDS011;48597;49.030;1.822;2023-06-14T09:59:42;7.75;;;3.42;;
62543;SDS011;48597;49.030;1.822;2023-06-14T10:02:11;3.33;;;3.03;;
62543;SDS011;48597;49.030;1.822;2023-06-14T10:04:46;3.35;;;3.05;;
62543;SDS011;48597;49.030;1.822;2023-06-14T10:07:13;3.42;;;3.13;;
62543;SDS011;48597;49.030;1.822;2023-06-14T10:09:43;3.33;;;3.03;;
62543;SDS011;48597;49.030;1.822;2023-06-14T10:12:14;3.58;;;3.25;;
62543;SDS011;48597;49.030;1.822;2023-06-14T10:14:45;2.90;;;2.70;;
62543;SDS011;48597;49.030;1.822;2023-06-14T10:17:16;3.55;;;3.03;;
62543;SDS011;48597;49.030;1.822;2023-06-14T10:19:48;3.85;;;3.10;;
62543;SDS011;48597;49.030;1.822;2023-06-14T10:22:29;3.58;;;3.15;;
62543;SDS011;48597;49.030;1.822;2023-06-14T10:24:59;4.07;;;3.33;;
62543;SDS011;48597;49.030;1.822;2023-06-14T10:27:24;3.55;;;3.00;;
62543;SDS011;48597;49.030;1.822;2023-06-14T10:32:18;2.85;;;2.65;;
62543;SDS011;48597;49.030;1.822;2023-06-14T10:34:45;3.63;;;3.17;;
62543;SDS011;48597;49.030;1.822;2023-06-14T10:37:11;4.00;;;3.38;;
62543;SDS011;48597;49.030;1.822;2023-06-14T10:39:40;3.50;;;3.20;;
62543;SDS011;48597;49.030;1.822;2023-06-14T10:42:09;3.22;;;2.92;;
62543;SDS011;48597;49.030;1.822;2023-06-14T10:47:06;4.57;;;3.65;;
62543;SDS011;48597;49.030;1.822;2023-06-14T10:49:55;5.22;;;3.17;;
62543;SDS011;48597;49.030;1.822;2023-06-14T10:52:23;3.58;;;3.25;;
62543;SDS011;48597;49.030;1.822;2023-06-14T10:55:04;3.50;;;3.20;;
62543;SDS011;48597;49.030;1.822;2023-06-14T10:57:34;3.42;;;3.13;;
62543;SDS011;48597;49.030;1.822;2023-06-14T11:00:16;3.35;;;2.92;;
62543;SDS011;48597;49.030;1.822;2023-06-14T11:02:53;5.80;;;3.25;;
62543;SDS011;48597;49.030;1.822;2023-06-14T11:11:15;3.60;;;3.30;;
62543;SDS011;48597;49.030;1.822;2023-06-14T11:13:43;3.33;;;3.03;;
62543;SDS011;48597;49.030;1.822;2023-06-14T11:16:13;4.15;;;3.17;;
62543;SDS011;48597;49.030;1.822;2023-06-14T11:18:41;3.80;;;3.28;;
62543;SDS011;48597;49.030;1.822;2023-06-14T11:21:08;3.30;;;3.00;;
62543;SDS011;48597;49.030;1.822;2023-06-14T11:23:34;3.53;;;3.22;;
62543;SDS011;48597;49.030;1.822;2023-06-14T11:26:00;3.45;;;3.15;;
62543;SDS011;48597;49.030;1.822;2023-06-14T11:28:35;4.10;;;3.30;;
62543;SDS011;48597;49.030;1.822;2023-06-14T11:31:05;3.10;;;2.80;;
62543;SDS011;48597;49.030;1.822;2023-06-14T11:33:31;3.30;;;3.00;;
62543;SDS011;48597;49.030;1.822;2023-06-14T11:35:56;3.03;;;2.78;;
62543;SDS011;48597;49.030;1.822;2023-06-14T11:38:21;3.08;;;2.78;;
62543;SDS011;48597;49.030;1.822;2023-06-14T11:40:47;3.20;;;2.90;;
62543;SDS011;48597;49.030;1.822;2023-06-14T11:43:12;3.45;;;3.15;;
62543;SDS011;48597;49.030;1.822;2023-06-14T11:45:39;3.10;;;2.80;;
62543;SDS011;48597;49.030;1.822;2023-06-14T11:48:05;5.82;;;2.95;;
62543;SDS011;48597;49.030;1.822;2023-06-14T11:50:31;3.33;;;3.03;;
62543;SDS011;48597;49.030;1.822;2023-06-14T11:53:01;3.50;;;3.03;;
62543;SDS011;48597;49.030;1.822;2023-06-14T11:55:32;4.07;;;2.97;;
62543;SDS011;48597;49.030;1.822;2023-06-14T11:58:01;3.03;;;2.72;;
62543;SDS011;48597;49.030;1.822;2023-06-14T12:00:28;3.30;;;3.00;;
62543;SDS011;48597;49.030;1.822;2023-06-14T12:02:54;5.07;;;3.08;;
62543;SDS011;48597;49.030;1.822;2023-06-14T12:05:23;3.85;;;3.15;;
62543;SDS011;48597;49.030;1.822;2023-06-14T12:07:57;4.05;;;3.28;;
62543;SDS011;48597;49.030;1.822;2023-06-14T12:10:25;3.30;;;2.92;;
62543;SDS011;48597;49.030;1.822;2023-06-14T12:12:51;3.33;;;2.80;;
62543;SDS011;48597;49.030;1.822;2023-06-14T12:17:47;3.30;;;3.00;;
62543;SDS011;48597;49.030;1.822;2023-06-14T12:20:12;4.28;;;3.00;;
62543;SDS011;48597;49.030;1.822;2023-06-14T12:22:51;3.92;;;3.00;;
62543;SDS011;48597;49.030;1.822;2023-06-14T12:25:31;3.40;;;2.88;;
62543;SDS011;48597;49.030;1.822;2023-06-14T12:27:58;3.47;;;3.17;;
62543;SDS011;48597;49.030;1.822;2023-06-14T12:30:28;3.87;;;3.37;;
62543;SDS011;48597;49.030;1.822;2023-06-14T12:32:53;3.28;;;2.85;;
62543;SDS011;48597;49.030;1.822;2023-06-14T12:35:19;5.07;;;3.20;;
62543;SDS011;48597;49.030;1.822;2023-06-14T12:37:45;3.90;;;3.50;;
62543;SDS011;48597;49.030;1.822;2023-06-14T12:40:11;6.18;;;3.40;;
62543;SDS011;48597;49.030;1.822;2023-06-14T12:42:37;4.20;;;2.90;;
62543;SDS011;48597;49.030;1.822;2023-06-14T12:45:02;3.50;;;3.20;;
62543;SDS011;48597;49.030;1.822;2023-06-14T12:47:28;3.05;;;2.75;;
62543;SDS011;48597;49.030;1.822;2023-06-14T12:49:53;3.38;;;2.78;;
62543;SDS011;48597;49.030;1.822;2023-06-14T12:52:18;3.30;;;3.00;;
62543;SDS011;48597;49.030;1.822;2023-06-14T12:54:44;5.57;;;3.10;;
62543;SDS011;48597;49.030;1.822;2023-06-14T12:57:10;4.32;;;3.03;;
62543;SDS011;48597;49.030;1.822;2023-06-14T12:59:35;3.90;;;3.00;;
62543;SDS011;48597;49.030;1.822;2023-06-14T13:02:16;3.85;;;3.05;;
62543;SDS011;48597;49.030;1.822;2023-06-14T13:04:43;4.03;;;3.40;;
62543;SDS011;48597;49.030;1.822;2023-06-14T13:07:09;4.95;;;3.20;;
62543;SDS011;48597;49.030;1.822;2023-06-14T13:09:35;3.50;;;2.85;;
62543;SDS011;48597;49.030;1.822;2023-06-14T13:12:01;3.45;;;3.00;;
62543;SDS011;48597;49.030;1.822;2023-06-14T13:14:27;3.65;;;3.28;;
62543;SDS011;48597;49.030;1.822;2023-06-14T13:16:53;5.03;;;3.15;;
62543;SDS011;48597;49.030;1.822;2023-06-14T13:19:18;4.63;;;3.40;;
62543;SDS011;48597;49.030;1.822;2023-06-14T13:21:44;4.20;;;3.17;;
62543;SDS011;48597;49.030;1.822;2023-06-14T13:24:09;3.53;;;3.20;;
62543;SDS011;48597;49.030;1.822;2023-06-14T13:26:34;3.33;;;3.10;;
62543;SDS011;48597;49.030;1.822;2023-06-14T13:29:00;4.25;;;3.15;;
62543;SDS011;48597;49.030;1.822;2023-06-14T13:31:25;3.50;;;3.15;;
62543;SDS011;48597;49.030;1.822;2023-06-14T13:33:51;3.83;;;3.10;;
62543;SDS011;48597;49.030;1.822;2023-06-14T13:36:16;3.70;;;3.13;;
62543;SDS011;48597;49.030;1.822;2023-06-14T13:38:42;3.67;;;3.03;;
62543;SDS011;48597;49.030;1.822;2023-06-14T13:41:07;3.10;;;2.80;;
62543;SDS011;48597;49.030;1.822;2023-06-14T13:43:33;3.50;;;3.20;;
62543;SDS011;48597;49.030;1.822;2023-06-14T13:45:58;4.10;;;3.20;;
62543;SDS011;48597;49.030;1.822;2023-06-14T13:48:23;3.38;;;3.08;;
62543;SDS011;48597;49.030;1.822;2023-06-14T13:50:49;3.78;;;3.30;;
62543;SDS011;48597;49.030;1.822;2023-06-14T13:53:15;3.80;;;3.20;;
62543;SDS011;48597;49.030;1.822;2023-06-14T13:55:40;3.55;;;3.25;;
62543;SDS011;48597;49.030;1.822;2023-06-14T13:58:06;3.63;;;3.33;;
62543;SDS011;48597;49.030;1.822;2023-06-14T14:00:31;3.42;;;3.13;;
62543;SDS011;48597;49.030;1.822;2023-06-14T14:02:57;5.05;;;3.30;;
62543;SDS011;48597;49.030;1.822;2023-06-14T14:05:24;5.47;;;3.40;;
62543;SDS011;48597;49.030;1.822;2023-06-14T14:07:53;3.10;;;2.80;;
62543;SDS011;48597;49.030;1.822;2023-06-14T14:10:19;5.53;;;3.83;;
62543;SDS011;48597;49.030;1.822;2023-06-14T14:12:45;4.30;;;3.35;;
62543;SDS011;48597;49.030;1.822;2023-06-14T14:15:11;3.80;;;3.00;;
62543;SDS011;48597;49.030;1.822;2023-06-14T14:17:37;4.13;;;3.25;;
62543;SDS011;48597;49.030;1.822;2023-06-14T14:20:03;4.80;;;3.50;;
62543;SDS011;48597;49.030;1.822;2023-06-14T14:22:29;3.42;;;3.13;;
62543;SDS011;48597;49.030;1.822;2023-06-14T14:24:55;3.85;;;3.20;;
62543;SDS011;48597;49.030;1.822;2023-06-14T14:27:20;3.83;;;3.28;;
62543;SDS011;48597;49.030;1.822;2023-06-14T14:29:46;3.40;;;2.97;;
62543;SDS011;48597;49.030;1.822;2023-06-14T14:32:11;3.60;;;3.10;;
62543;SDS011;48597;49.030;1.822;2023-06-14T14:34:39;4.95;;;3.40;;
62543;SDS011;48597;49.030;1.822;2023-06-14T14:37:04;5.18;;;3.60;;
62543;SDS011;48597;49.030;1.822;2023-06-14T14:39:30;4.88;;;3.90;;
62543;SDS011;48597;49.030;1.822;2023-06-14T14:41:55;4.85;;;3.35;;
62543;SDS011;48597;49.030;1.822;2023-06-14T14:44:21;4.57;;;3.63;;
62543;SDS011;48597;49.030;1.822;2023-06-14T14:46:46;3.95;;;3.40;;
62543;SDS011;48597;49.030;1.822;2023-06-14T14:49:15;4.57;;;3.65;;
62543;SDS011;48597;49.030;1.822;2023-06-14T14:51:40;4.40;;;3.60;;
62543;SDS011;48597;49.030;1.822;2023-06-14T14:54:06;3.78;;;3.47;;
62543;SDS011;48597;49.030;1.822;2023-06-14T14:56:31;4.32;;;3.53;;
62543;SDS011;48597;49.030;1.822;2023-06-14T14:58:57;5.28;;;3.90;;
62543;SDS011;48597;49.030;1.822;2023-06-14T15:01:24;5.15;;;3.47;;
62543;SDS011;48597;49.030;1.822;2023-06-14T15:03:49;4.28;;;3.88;;
62543;SDS011;48597;49.030;1.822;2023-06-14T15:06:15;5.75;;;3.38;;
62543;SDS011;48597;49.030;1.822;2023-06-14T15:08:42;3.90;;;3.35;;
62543;SDS011;48597;49.030;1.822;2023-06-14T15:11:08;4.47;;;3.63;;